Time;durP1;ratioP1;P1;durP2;ratioP2;P2;SDS_P1;SDS_P2;PMS_P1;PMS_P2;Temp;Humidity;BMP_temperature;BMP_pressure;BME280_temperature;BME280_humidity;BME280_pressure;Samples;Min_cycle;Max_cycle;Signal;HPM_P1;HPM_P2
2021/12/03 00:01:21;;;;;;;9.15;8.32;;;2.20;99.90;;;;;;5031589;28;20029;-74
2021/12/03 00:03:48;;;;;;;9.48;8.63;;;2.20;99.90;;;;;;5031858;28;20040;-73
2021/12/03 00:06:15;;;;;;;9.52;8.68;;;2.20;99.90;;;;;;5030985;28;20029;-73
2021/12/03 00:08:41;;;;;;;9.55;8.63;;;2.20;99.90;;;;;;5032627;28;20033;-74
2021/12/03 00:11:10;;;;;;;10.15;9.15;;;2.20;99.90;;;;;;5031502;28;20048;-74
2021/12/03 00:13:37;;;;;;;9.60;8.80;;;2.10;99.90;;;;;;5033000;28;20045;-74
2021/12/03 00:16:04;;;;;;;9.52;8.63;;;2.10;99.90;;;;;;5032926;28;20398;-74
2021/12/03 00:18:32;;;;;;;9.48;8.75;;;2.10;99.90;;;;;;5015842;28;20351;-74
2021/12/03 00:21:03;;;;;;;11.65;10.57;;;2.10;99.90;;;;;;5016305;28;20493;-75
2021/12/03 00:23:30;;;;;;;10.88;9.88;;;2.10;99.90;;;;;;5017150;28;20382;-75
2021/12/03 00:26:00;;;;;;;10.20;9.20;;;2.20;99.90;;;;;;5015071;28;20036;-76
2021/12/03 00:28:30;;;;;;;16.05;10.50;;;2.10;99.90;;;;;;5033691;28;20022;-74
2021/12/03 00:30:57;;;;;;;7.80;7.10;;;2.20;99.90;;;;;;5015706;28;20045;-75
2021/12/03 00:33:25;;;;;;;10.68;9.75;;;2.10;99.90;;;;;;5032322;28;20048;-75
2021/12/03 00:35:52;;;;;;;10.73;9.73;;;2.10;99.90;;;;;;5031973;28;20041;-75
2021/12/03 00:38:19;;;;;;;9.70;8.90;;;2.10;99.90;;;;;;5031383;28;20045;-75
2021/12/03 00:40:45;;;;;;;11.10;10.05;;;2.10;99.90;;;;;;5031549;28;20474;-74
2021/12/03 00:43:12;;;;;;;12.35;11.20;;;2.00;99.90;;;;;;5030810;28;20060;-75
2021/12/03 00:45:38;;;;;;;11.10;10.00;;;2.00;99.90;;;;;;5014652;28;20045;-74
2021/12/03 00:48:05;;;;;;;14.00;10.23;;;2.00;99.90;;;;;;5031023;28;20034;-75
2021/12/03 00:50:32;;;;;;;12.27;10.98;;;2.00;99.90;;;;;;5031961;28;20025;-74
2021/12/03 00:53:00;;;;;;;13.20;11.27;;;2.00;99.90;;;;;;5031343;28;20026;-75
2021/12/03 00:55:28;;;;;;;11.75;9.73;;;2.00;99.90;;;;;;5032923;28;20378;-74
2021/12/03 00:57:55;;;;;;;11.73;10.63;;;2.00;99.90;;;;;;5016059;28;20033;-76
2021/12/03 01:00:24;;;;;;;10.95;9.55;;;2.00;99.90;;;;;;5014222;28;20382;-75
2021/12/03 01:02:52;;;;;;;12.18;10.85;;;2.00;99.90;;;;;;5032051;28;20033;-74
2021/12/03 01:05:19;;;;;;;10.52;9.23;;;2.00;99.90;;;;;;5030927;28;20034;-74
2021/12/03 01:07:45;;;;;;;9.82;8.82;;;2.00;99.90;;;;;;5031481;28;20041;-74
2021/12/03 01:10:11;;;;;;;9.48;8.07;;;2.00;99.90;;;;;;5030613;28;20040;-74
2021/12/03 01:12:38;;;;;;;12.50;8.48;;;2.00;99.90;;;;;;5031233;28;20053;-75
2021/12/03 01:15:08;;;;;;;9.68;8.77;;;2.00;99.90;;;;;;5030697;28;20041;-75
2021/12/03 01:17:34;;;;;;;7.50;6.95;;;2.00;99.90;;;;;;5017405;28;20045;-74
2021/12/03 01:20:06;;;;;;;10.02;9.13;;;2.00;99.90;;;;;;5035307;28;20030;-74
2021/12/03 01:22:33;;;;;;;10.00;8.48;;;2.00;99.90;;;;;;5037884;28;20034;-75
2021/12/03 01:25:00;;;;;;;9.70;8.82;;;2.00;99.90;;;;;;5019977;28;20041;-75
2021/12/03 01:27:26;;;;;;;8.18;7.38;;;2.00;99.90;;;;;;5038362;28;20370;-74
2021/12/03 01:29:55;;;;;;;9.13;7.32;;;2.00;99.90;;;;;;5021238;28;20033;-76
2021/12/03 01:32:22;;;;;;;18.90;7.43;;;2.00;99.90;;;;;;5003780;28;20056;-75
2021/12/03 01:34:48;;;;;;;8.48;6.70;;;2.00;99.90;;;;;;5038096;28;20037;-75
2021/12/03 01:37:14;;;;;;;5.95;5.35;;;2.00;99.90;;;;;;5036993;28;20033;-75
2021/12/03 01:39:41;;;;;;;7.47;6.30;;;1.90;99.90;;;;;;5019453;28;20482;-75
2021/12/03 01:42:07;;;;;;;9.25;6.47;;;1.80;99.90;;;;;;5020694;28;20041;-74
2021/12/03 01:44:34;;;;;;;7.78;6.88;;;1.70;99.90;;;;;;5038891;28;20037;-75
2021/12/03 01:47:00;;;;;;;8.63;7.57;;;1.70;99.90;;;;;;5019565;28;20044;-75
2021/12/03 01:49:27;;;;;;;7.97;6.60;;;1.70;99.90;;;;;;5037638;28;20037;-74
2021/12/03 01:51:53;;;;;;;9.77;8.00;;;1.70;99.90;;;;;;5035757;28;20045;-74
2021/12/03 01:54:20;;;;;;;7.35;6.65;;;1.60;99.90;;;;;;5035950;28;20175;-73
2021/12/03 01:56:46;;;;;;;9.18;7.88;;;1.60;99.90;;;;;;5019462;28;20048;-74
2021/12/03 01:59:13;;;;;;;9.80;7.78;;;1.50;99.90;;;;;;5036920;28;20037;-74
2021/12/03 02:01:40;;;;;;;8.13;6.88;;;1.50;99.90;;;;;;5003124;28;20470;-75
2021/12/03 02:04:07;;;;;;;7.60;6.90;;;1.40;99.90;;;;;;5018121;28;20049;-74
2021/12/03 02:06:34;;;;;;;7.68;6.28;;;1.40;99.90;;;;;;5036677;28;20036;-74
2021/12/03 02:09:01;;;;;;;7.65;6.55;;;1.40;99.90;;;;;;5017261;28;20467;-75
2021/12/03 02:11:28;;;;;;;5.75;5.30;;;1.30;99.90;;;;;;5035510;28;20037;-74
2021/12/03 02:13:55;;;;;;;7.72;6.32;;;1.30;99.90;;;;;;5001082;28;20057;-74
2021/12/03 02:16:22;;;;;;;7.00;6.40;;;1.20;99.90;;;;;;5034766;28;20037;-74
2021/12/03 02:18:50;;;;;;;7.55;6.68;;;1.20;99.90;;;;;;5017525;28;20045;-74
2021/12/03 02:21:17;;;;;;;7.00;5.72;;;1.10;99.90;;;;;;5034529;28;20041;-74
2021/12/03 02:23:45;;;;;;;6.63;5.85;;;1.00;99.90;;;;;;5017938;28;20390;-74
2021/12/03 02:26:14;;;;;;;10.07;6.95;;;0.90;99.90;;;;;;5018145;28;20041;-74
2021/12/03 02:28:44;;;;;;;7.80;7.07;;;0.80;99.90;;;;;;5034806;28;20033;-74
2021/12/03 02:31:12;;;;;;;7.57;6.85;;;0.70;99.90;;;;;;5016871;28;20049;-74
2021/12/03 02:33:39;;;;;;;7.88;7.05;;;0.60;99.90;;;;;;5018290;28;20040;-73
2021/12/03 02:36:06;;;;;;;7.72;7.03;;;0.50;99.90;;;;;;5017862;28;20044;-73
2021/12/03 02:38:34;;;;;;;8.18;7.32;;;0.30;99.90;;;;;;5035736;28;20025;-74
2021/12/03 02:41:00;;;;;;;9.38;6.38;;;0.20;99.90;;;;;;5035112;28;20040;-75
2021/12/03 02:43:27;;;;;;;9.82;7.75;;;0.10;99.90;;;;;;5017515;28;20042;-75
2021/12/03 02:45:53;;;;;;;8.70;7.90;;;0.00;99.90;;;;;;5035340;28;20037;-74
2021/12/03 02:48:21;;;;;;;10.05;8.63;;;0.00;99.90;;;;;;5001395;28;20049;-75
2021/12/03 02:50:48;;;;;;;13.40;10.07;;;-0.10;99.90;;;;;;5018338;28;20033;-74
2021/12/03 02:53:14;;;;;;;11.80;10.00;;;-0.20;99.90;;;;;;5035627;28;20037;-74
2021/12/03 02:55:42;;;;;;;12.07;10.00;;;-0.30;99.90;;;;;;5018394;28;20034;-74
2021/12/03 02:58:09;;;;;;;10.25;9.25;;;-0.20;99.90;;;;;;5000318;28;20479;-74
2021/12/03 03:00:37;;;;;;;9.90;8.90;;;-0.30;99.90;;;;;;5034660;28;20057;-75
2021/12/03 03:03:03;;;;;;;11.95;9.95;;;-0.30;99.90;;;;;;5017965;28;20467;-74
2021/12/03 03:05:31;;;;;;;10.93;9.93;;;-0.30;99.90;;;;;;5017856;28;20048;-74
2021/12/03 03:07:58;;;;;;;11.68;10.50;;;-0.20;99.90;;;;;;5017908;28;20037;-74
2021/12/03 03:10:30;;;;;;;10.35;9.38;;;-0.20;99.90;;;;;;5032842;28;20029;-74
2021/12/03 03:12:58;;;;;;;9.65;8.80;;;0.00;99.90;;;;;;5015538;28;20056;-74
2021/12/03 03:15:25;;;;;;;14.55;9.18;;;0.20;99.90;;;;;;5032438;28;20037;-74
2021/12/03 03:17:51;;;;;;;27.92;9.35;;;0.30;99.90;;;;;;5033113;28;20060;-74
2021/12/03 03:20:18;;;;;;;9.13;7.72;;;0.40;99.90;;;;;;5032422;28;20462;-74
2021/12/03 03:22:45;;;;;;;10.45;7.18;;;0.40;99.90;;;;;;5032762;28;20041;-74
2021/12/03 03:25:15;;;;;;;6.85;6.07;;;0.40;99.90;;;;;;5014606;28;20040;-75
2021/12/03 03:27:42;;;;;;;8.45;6.05;;;0.50;99.90;;;;;;5032956;28;20033;-74
2021/12/03 03:30:12;;;;;;;9.63;6.03;;;0.40;99.90;;;;;;5032221;28;20049;-74
2021/12/03 03:32:39;;;;;;;5.30;4.78;;;0.30;99.90;;;;;;5033180;28;20037;-74
2021/12/03 03:35:06;;;;;;;5.80;5.20;;;0.40;99.90;;;;;;5014781;28;20049;-75
2021/12/03 03:37:33;;;;;;;5.97;4.82;;;0.50;99.90;;;;;;5034102;28;20045;-74
2021/12/03 03:40:00;;;;;;;5.55;4.78;;;0.40;99.90;;;;;;5034492;28;20459;-74
2021/12/03 03:42:26;;;;;;;8.57;5.30;;;0.50;99.90;;;;;;5032215;28;20106;-74
2021/12/03 03:44:53;;;;;;;6.78;5.43;;;0.50;99.90;;;;;;5032807;28;20048;-73
2021/12/03 03:47:19;;;;;;;5.65;4.82;;;0.50;99.90;;;;;;5031804;28;20041;-74
2021/12/03 03:49:45;;;;;;;8.40;5.10;;;0.50;99.90;;;;;;5032617;28;20037;-73
2021/12/03 03:52:11;;;;;;;5.20;4.70;;;0.30;99.90;;;;;;5031622;28;20489;-73
2021/12/03 03:54:37;;;;;;;9.13;5.05;;;0.20;99.90;;;;;;5014645;28;20052;-74
2021/12/03 03:57:04;;;;;;;8.15;5.97;;;0.20;99.90;;;;;;5032189;28;20386;-74
2021/12/03 03:59:30;;;;;;;7.68;4.95;;;0.10;99.90;;;;;;5031650;28;20048;-74
2021/12/03 04:01:57;;;;;;;7.00;5.53;;;0.10;99.90;;;;;;5032052;28;20048;-74
2021/12/03 04:04:23;;;;;;;7.55;5.68;;;0.10;99.90;;;;;;5030729;28;20050;-74
2021/12/03 04:06:50;;;;;;;9.15;5.40;;;0.00;99.90;;;;;;5032104;28;20040;-73
2021/12/03 04:09:16;;;;;;;9.63;5.15;;;0.00;99.90;;;;;;5031840;28;20029;-74
2021/12/03 04:11:42;;;;;;;6.25;5.63;;;0.10;99.90;;;;;;5032089;28;20034;-73
2021/12/03 04:14:08;;;;;;;8.20;6.43;;;0.10;99.90;;;;;;5031769;28;20041;-74
2021/12/03 04:16:35;;;;;;;5.90;5.28;;;0.10;99.90;;;;;;5032350;28;20045;-73
2021/12/03 04:19:01;;;;;;;6.50;5.90;;;0.10;99.90;;;;;;5031996;28;20033;-73
2021/12/03 04:21:28;;;;;;;6.65;6.00;;;0.20;99.90;;;;;;5031530;28;20109;-74
2021/12/03 04:23:54;;;;;;;7.70;6.70;;;0.30;99.90;;;;;;5032355;28;20052;-74
2021/12/03 04:26:21;;;;;;;10.52;6.75;;;0.20;99.90;;;;;;5031096;28;20033;-74
2021/12/03 04:28:47;;;;;;;8.63;6.63;;;0.20;99.90;;;;;;5031848;28;20036;-74
2021/12/03 04:31:14;;;;;;;8.00;6.35;;;0.00;99.90;;;;;;5031450;28;20033;-74
2021/12/03 04:33:40;;;;;;;10.27;6.93;;;-0.10;99.90;;;;;;5031763;28;20026;-74
2021/12/03 04:36:06;;;;;;;9.45;6.70;;;-0.20;99.90;;;;;;5031826;28;20029;-73
2021/12/03 04:38:32;;;;;;;7.05;6.32;;;-0.10;99.90;;;;;;5031208;28;20022;-74
2021/12/03 04:41:01;;;;;;;6.88;6.18;;;-0.20;99.90;;;;;;5032023;28;20033;-74
2021/12/03 04:43:28;;;;;;;9.38;5.60;;;-0.30;99.90;;;;;;5030717;28;20270;-74
2021/12/03 04:45:55;;;;;;;9.68;7.28;;;-0.40;99.90;;;;;;5031818;28;20045;-73
2021/12/03 04:48:21;;;;;;;8.07;7.15;;;-0.50;99.90;;;;;;5012948;28;20037;-74
2021/12/03 04:50:48;;;;;;;7.75;6.32;;;-0.60;99.90;;;;;;5016190;28;20068;-74
2021/12/03 04:53:15;;;;;;;8.63;6.25;;;-0.80;99.90;;;;;;5037819;28;20041;-74
2021/12/03 04:55:41;;;;;;;13.15;9.40;;;-0.90;99.90;;;;;;5037451;28;20052;-75
2021/12/03 04:58:08;;;;;;;9.60;8.07;;;-0.80;99.90;;;;;;5038070;28;20056;-74
2021/12/03 05:00:38;;;;;;;7.97;7.18;;;-0.90;99.90;;;;;;5037720;28;20493;-75
2021/12/03 05:03:05;;;;;;;8.40;6.57;;;-0.90;99.90;;;;;;5020581;28;20038;-75
2021/12/03 05:05:32;;;;;;;9.43;8.52;;;-1.00;99.90;;;;;;5037778;28;20255;-75
2021/12/03 05:08:07;;;;;;;11.77;9.30;;;-1.00;99.90;;;;;;5037732;28;20045;-74
2021/12/03 05:10:36;;;;;;;7.93;6.97;;;-1.10;99.90;;;;;;5037880;28;20033;-75
2021/12/03 05:13:05;;;;;;;9.13;8.20;;;-1.20;99.90;;;;;;5003645;28;20045;-74
2021/12/03 05:15:33;;;;;;;8.02;6.57;;;-1.20;99.90;;;;;;5020642;28;20656;-74
2021/12/03 05:18:00;;;;;;;12.65;9.00;;;-1.30;99.90;;;;;;5038263;28;20493;-75
2021/12/03 05:20:27;;;;;;;7.88;7.07;;;-1.30;99.90;;;;;;5037293;28;20037;-75
2021/12/03 05:22:54;;;;;;;10.82;8.18;;;-1.30;99.90;;;;;;5037415;28;20052;-74
2021/12/03 05:25:21;;;;;;;11.38;8.63;;;-1.30;99.90;;;;;;5034577;28;20046;-75
2021/12/03 05:27:50;;;;;;;22.85;19.02;;;-1.30;99.90;;;;;;5000482;28;20372;-74
2021/12/03 05:30:16;;;;;;;12.25;10.07;;;-1.40;99.90;;;;;;5017779;28;20049;-74
2021/12/03 05:32:43;;;;;;;14.52;10.57;;;-1.40;99.90;;;;;;5017978;28;20505;-75
2021/12/03 05:35:10;;;;;;;73.53;62.92;;;-1.40;99.90;;;;;;5018078;28;20386;-75
2021/12/03 05:37:37;;;;;;;29.45;21.63;;;-1.30;99.90;;;;;;5017539;28;20030;-75
2021/12/03 05:40:08;;;;;;;25.95;23.20;;;-1.30;99.90;;;;;;5017897;28;20069;-75
2021/12/03 05:42:34;;;;;;;25.48;21.15;;;-1.40;99.90;;;;;;5017125;28;20046;-75
2021/12/03 05:45:01;;;;;;;16.25;10.60;;;-1.40;99.90;;;;;;5017857;28;20038;-75
2021/12/03 05:47:27;;;;;;;20.85;10.15;;;-1.40;99.90;;;;;;5017123;28;20474;-75
2021/12/03 05:49:53;;;;;;;14.75;12.13;;;-1.40;99.90;;;;;;5017910;28;20033;-75
2021/12/03 05:52:19;;;;;;;56.00;48.70;;;-1.40;99.90;;;;;;5015319;28;20501;-78
2021/12/03 05:54:46;;;;;;;319.67;285.05;;;-1.40;99.90;;;;;;4996685;28;20054;-75
2021/12/03 05:57:12;;;;;;;97.05;82.85;;;-1.30;99.90;;;;;;4998023;28;20382;-75
2021/12/03 05:59:38;;;;;;;27.65;23.48;;;-1.30;99.90;;;;;;5017293;28;20045;-75
2021/12/03 06:02:05;;;;;;;13.32;11.98;;;-1.20;99.90;;;;;;5015415;28;20037;-76
2021/12/03 06:04:32;;;;;;;14.52;13.15;;;-1.20;99.90;;;;;;5013426;28;20029;-75
2021/12/03 06:06:58;;;;;;;71.03;63.22;;;-1.20;99.90;;;;;;5014581;28;20034;-76
2021/12/03 06:09:24;;;;;;;15.00;13.50;;;-1.10;99.90;;;;;;5011235;28;20045;-76
2021/12/03 06:11:51;;;;;;;22.33;20.02;;;-1.10;99.90;;;;;;5016242;28;20046;-76
2021/12/03 06:14:17;;;;;;;16.75;15.05;;;-1.10;99.90;;;;;;5030505;28;20033;-76
2021/12/03 06:16:43;;;;;;;31.00;16.73;;;-1.10;99.90;;;;;;5010483;28;20041;-77
2021/12/03 06:19:09;;;;;;;22.88;20.65;;;-1.10;99.90;;;;;;5024433;28;20037;-77
2021/12/03 06:21:35;;;;;;;39.85;27.15;;;-1.10;99.90;;;;;;5022984;28;20037;-77
2021/12/03 06:24:02;;;;;;;28.80;17.35;;;-1.10;99.90;;;;;;5030190;28;20035;-77
2021/12/03 06:26:28;;;;;;;38.65;34.58;;;-1.10;99.90;;;;;;5015887;28;20034;-77
2021/12/03 06:28:54;;;;;;;33.78;30.20;;;-1.20;99.90;;;;;;5014396;28;20478;-76
2021/12/03 06:31:20;;;;;;;19.35;17.60;;;-1.20;99.90;;;;;;5013414;28;20038;-77
2021/12/03 06:33:47;;;;;;;20.20;18.05;;;-1.30;99.90;;;;;;5013847;28;20030;-77
2021/12/03 06:36:13;;;;;;;29.00;26.13;;;-1.30;99.90;;;;;;5013769;28;20026;-75
2021/12/03 06:38:39;;;;;;;29.88;26.85;;;-1.30;99.90;;;;;;5013490;28;20037;-77
2021/12/03 06:41:06;;;;;;;31.08;27.98;;;-1.30;99.90;;;;;;5020174;28;20041;-77
2021/12/03 06:43:33;;;;;;;17.52;15.75;;;-1.40;99.90;;;;;;5033116;28;20029;-76
2021/12/03 06:46:00;;;;;;;43.25;34.38;;;-1.50;99.90;;;;;;5030683;28;20034;-76
2021/12/03 06:48:27;;;;;;;23.42;20.95;;;-1.50;99.90;;;;;;5027071;28;20101;-77
2021/12/03 06:50:53;;;;;;;85.40;73.88;;;-1.50;99.90;;;;;;5033336;28;20033;-77
2021/12/03 06:53:23;;;;;;;17.90;16.33;;;-1.50;99.90;;;;;;5032511;28;20030;-77
2021/12/03 06:56:05;;;;;;;31.05;21.50;;;-1.40;99.90;;;;;;5025392;28;20040;-78
2021/12/03 06:58:31;;;;;;;31.27;20.98;;;-1.40;99.90;;;;;;5020474;28;20395;-77
2021/12/03 07:00:59;;;;;;;28.30;23.73;;;-1.30;99.90;;;;;;5033158;28;20386;-77
2021/12/03 07:03:26;;;;;;;25.20;18.33;;;-1.40;99.90;;;;;;5018914;28;20170;-77
2021/12/03 07:05:52;;;;;;;18.40;16.27;;;-1.30;99.90;;;;;;5013288;28;20030;-79
2021/12/03 07:08:18;;;;;;;20.55;18.30;;;-1.40;99.90;;;;;;5012688;28;20110;-80
2021/12/03 07:10:45;;;;;;;24.25;20.95;;;-1.40;99.90;;;;;;5013614;28;20034;-83
2021/12/03 07:13:11;;;;;;;60.25;41.00;;;-1.40;99.90;;;;;;5013395;28;20042;-82
2021/12/03 07:15:38;;;;;;;22.33;17.02;;;-1.30;99.90;;;;;;5015838;28;20049;-80
2021/12/03 07:18:04;;;;;;;21.20;19.08;;;-1.30;99.90;;;;;;5013317;28;20053;-79
2021/12/03 07:20:31;;;;;;;30.23;24.23;;;-1.30;99.90;;;;;;5022836;28;20036;-80
2021/12/03 07:22:57;;;;;;;46.28;37.55;;;-1.30;99.90;;;;;;4998060;28;20057;-81
2021/12/03 07:25:23;;;;;;;25.52;20.50;;;-1.20;99.90;;;;;;4996990;28;20048;-80
2021/12/03 07:27:49;;;;;;;27.25;19.17;;;-1.20;99.90;;;;;;5023108;28;20036;-80
2021/12/03 07:30:18;;;;;;;23.63;18.20;;;-1.20;99.90;;;;;;5017119;28;20056;-78
2021/12/03 07:32:45;;;;;;;19.30;16.67;;;-1.20;99.90;;;;;;4994855;28;20034;-81
2021/12/03 07:35:12;;;;;;;17.15;15.43;;;-1.20;99.90;;;;;;5028307;28;20048;-81
2021/12/03 07:37:38;;;;;;;24.13;17.63;;;-1.10;99.90;;;;;;5032168;28;20030;-82
2021/12/03 07:40:07;;;;;;;19.67;17.08;;;-1.00;99.90;;;;;;5032418;28;20032;-80
2021/12/03 07:42:34;;;;;;;22.50;17.08;;;-0.90;99.90;;;;;;5032757;28;20033;-80
2021/12/03 07:45:03;;;;;;;20.52;18.02;;;-0.90;99.90;;;;;;5036310;28;20038;-81
2021/12/03 07:47:29;;;;;;;19.60;16.83;;;-0.80;99.90;;;;;;5026435;28;20038;-82
2021/12/03 07:49:55;;;;;;;22.83;18.80;;;-0.70;99.90;;;;;;5013051;28;20455;-82
2021/12/03 07:52:21;;;;;;;21.13;18.23;;;-0.60;99.90;;;;;;5014426;28;20034;-81
2021/12/03 07:54:49;;;;;;;20.00;16.25;;;-0.60;99.90;;;;;;5014443;28;20030;-82
2021/12/03 07:57:15;;;;;;;20.50;15.90;;;-0.60;99.90;;;;;;5012840;28;20031;-81
2021/12/03 07:59:42;;;;;;;22.48;15.90;;;-0.50;99.90;;;;;;5012933;28;20037;-82
2021/12/03 08:02:09;;;;;;;20.65;18.58;;;-0.50;99.90;;;;;;5012692;28;20049;-81
2021/12/03 08:04:35;;;;;;;17.52;15.00;;;-0.40;99.90;;;;;;5011990;28;20030;-78
2021/12/03 08:07:01;;;;;;;20.95;15.43;;;-0.40;99.90;;;;;;5012584;28;20078;-78
2021/12/03 08:09:28;;;;;;;17.40;15.10;;;-0.20;99.90;;;;;;5010645;28;20038;-78
2021/12/03 08:11:54;;;;;;;15.10;13.38;;;-0.20;99.90;;;;;;5012711;28;20038;-78
2021/12/03 08:14:20;;;;;;;15.32;13.85;;;-0.10;99.90;;;;;;5012199;28;20033;-76
2021/12/03 08:16:47;;;;;;;14.32;12.93;;;0.20;99.90;;;;;;5012194;28;20038;-77
2021/12/03 08:19:13;;;;;;;22.20;11.30;;;0.40;99.90;;;;;;5012384;28;20382;-77
2021/12/03 08:21:39;;;;;;;13.30;10.95;;;0.70;99.90;;;;;;5010612;28;20042;-76
2021/12/03 08:24:06;;;;;;;12.38;9.60;;;1.00;99.90;;;;;;5012692;28;20037;-76
2021/12/03 08:26:32;;;;;;;13.25;10.25;;;1.10;99.90;;;;;;5011099;28;20037;-76
2021/12/03 08:28:59;;;;;;;11.88;9.98;;;1.10;99.90;;;;;;5012572;28;20481;-76
2021/12/03 08:31:26;;;;;;;9.55;8.65;;;1.10;99.90;;;;;;5011548;28;20038;-77
2021/12/03 08:33:52;;;;;;;22.05;9.77;;;1.00;99.90;;;;;;5012218;28;20056;-80
2021/12/03 08:36:19;;;;;;;10.65;9.48;;;1.00;99.90;;;;;;5012154;28;20026;-76
2021/12/03 08:38:46;;;;;;;14.50;9.73;;;0.90;99.90;;;;;;5011326;28;20053;-77
2021/12/03 08:41:16;;;;;;;16.98;10.05;;;0.90;99.90;;;;;;5012070;28;20387;-78
2021/12/03 08:43:42;;;;;;;20.25;9.10;;;0.90;99.90;;;;;;5010382;28;20034;-78
2021/12/03 08:46:12;;;;;;;10.15;9.25;;;0.90;99.90;;;;;;5012559;28;20037;-78
2021/12/03 08:48:41;;;;;;;11.32;10.10;;;0.90;99.90;;;;;;5011337;28;20033;-77
2021/12/03 08:56:29;;;;;;;13.70;9.82;;;1.00;99.90;;;;;;5011379;28;20029;-77
2021/12/03 08:58:56;;;;;;;12.77;9.43;;;1.00;99.90;;;;;;5028099;28;20038;-78
2021/12/03 09:01:22;;;;;;;21.17;10.02;;;1.00;99.90;;;;;;5031592;28;20041;-77
2021/12/03 09:03:48;;;;;;;13.77;9.07;;;1.00;99.90;;;;;;5030955;28;20040;-78
2021/12/03 09:06:15;;;;;;;14.35;10.95;;;1.00;99.90;;;;;;5031624;28;20033;-78
2021/12/03 09:08:41;;;;;;;16.80;13.02;;;1.00;99.90;;;;;;5030863;28;20080;-78
2021/12/03 09:11:07;;;;;;;14.20;11.40;;;1.00;99.90;;;;;;5030503;28;20038;-77
2021/12/03 09:13:34;;;;;;;11.10;9.90;;;1.00;99.90;;;;;;5030550;28;20053;-75
2021/12/03 09:16:04;;;;;;;10.30;8.82;;;1.10;99.90;;;;;;5013775;28;20030;-74
2021/12/03 09:18:33;;;;;;;17.75;10.73;;;1.10;99.90;;;;;;5030466;28;20030;-74
2021/12/03 09:21:15;;;;;;;16.55;9.30;;;1.20;99.90;;;;;;5030973;28;20032;-74
2021/12/03 09:26:13;;;;;;;9.30;8.38;;;1.20;99.90;;;;;;5017340;28;20041;-74
2021/12/03 09:28:44;;;;;;;12.52;11.32;;;1.20;99.90;;;;;;5010606;28;20371;-74
2021/12/03 09:31:11;;;;;;;10.17;8.97;;;1.40;99.90;;;;;;5011100;28;20045;-74
2021/12/03 09:33:44;;;;;;;23.80;20.20;;;1.40;99.90;;;;;;5010881;28;20037;-74
2021/12/03 09:36:10;;;;;;;16.27;11.48;;;1.50;99.90;;;;;;5011885;28;20374;-74
2021/12/03 09:38:38;;;;;;;8.50;7.72;;;1.50;99.90;;;;;;5014207;28;20038;-74
2021/12/03 09:41:10;;;;;;;9.43;8.05;;;1.60;99.90;;;;;;5014848;28;20038;-75
2021/12/03 09:43:44;;;;;;;7.47;6.75;;;1.60;99.90;;;;;;5014505;28;20065;-74
2021/12/03 09:49:49;;;;;;;12.23;7.68;;;1.60;99.90;;;;;;5013730;28;20038;-74
2021/12/03 09:57:10;;;;;;;6.20;5.68;;;1.60;99.90;;;;;;5014176;28;20053;-74
2021/12/03 10:02:57;;;;;;;6.22;5.63;;;1.70;99.90;;;;;;5014276;28;20395;-75
2021/12/03 10:05:30;;;;;;;7.88;7.03;;;1.80;99.90;;;;;;5006450;28;20450;-74
2021/12/03 10:13:40;;;;;;;9.27;6.43;;;1.90;99.80;;;;;;5016416;28;20046;-73
2021/12/03 10:35:00;;;;;;;8.15;7.40;;;1.80;99.90;;;;;;5013769;28;20156;-76
2021/12/03 10:37:43;;;;;;;8.43;7.13;;;1.90;99.90;;;;;;5013092;28;20046;-74
2021/12/03 10:40:24;;;;;;;19.48;7.13;;;1.90;99.90;;;;;;5012643;28;20037;-74
2021/12/03 10:46:08;;;;;;;7.65;6.95;;;2.10;99.90;;;;;;5012889;28;20026;-75
2021/12/03 10:54:19;;;;;;;12.18;6.03;;;2.40;98.50;;;;;;5013401;28;20030;-75
2021/12/03 10:57:05;;;;;;;5.55;5.05;;;2.30;98.00;;;;;;4978298;28;20084;-75
2021/12/03 11:05:22;;;;;;;9.07;6.47;;;2.40;98.00;;;;;;5012705;28;20053;-74
2021/12/03 12:40:59;;;;;;;4.88;3.60;;;3.10;91.30;;;;;;5012419;28;20045;-78
2021/12/03 13:01:24;;;;;;;10.88;5.45;;;3.10;90.20;;;;;;5012792;28;20025;-79
2021/12/03 13:15:37;;;;;;;19.23;13.07;;;3.10;89.50;;;;;;5015217;28;20038;-82
2021/12/03 14:18:59;;;;;;;8.57;4.72;;;3.30;85.20;;;;;;4973801;28;20050;-78
2021/12/03 14:52:02;;;;;;;7.45;5.38;;;3.10;89.30;;;;;;5013636;28;20041;-79
2021/12/03 14:54:52;;;;;;;20.73;8.95;;;3.00;89.30;;;;;;5014411;28;20037;-78
2021/12/03 14:57:41;;;;;;;13.43;8.43;;;3.00;89.90;;;;;;5014373;28;20038;-78
2021/12/03 15:03:05;;;;;;;11.90;8.98;;;2.90;90.50;;;;;;5016998;28;20045;-78
2021/12/03 15:08:17;;;;;;;6.00;5.10;;;2.80;91.10;;;;;;5014836;28;20478;-78
2021/12/03 15:27:15;;;;;;;28.80;17.02;;;2.60;91.40;;;;;;5013179;28;20030;-77
2021/12/03 15:32:54;;;;;;;24.70;17.88;;;2.60;91.60;;;;;;5013720;28;20382;-78
2021/12/03 15:35:51;;;;;;;11.20;7.13;;;2.60;91.90;;;;;;5013121;28;20045;-77
2021/12/03 15:38:30;;;;;;;11.07;9.27;;;2.60;91.80;;;;;;5013572;28;20038;-76
2021/12/03 16:10:34;;;;;;;13.05;11.85;;;2.60;91.70;;;;;;5025650;28;20025;-77
2021/12/03 16:13:18;;;;;;;14.73;9.15;;;2.60;91.70;;;;;;5022283;28;20045;-77
2021/12/03 16:49:19;;;;;;;5.15;4.65;;;2.70;91.00;;;;;;5012082;28;20029;-76
2021/12/03 16:53:39;;;;;;;18.58;7.18;;;2.60;91.20;;;;;;5013300;28;20499;-77
2021/12/03 16:56:10;;;;;;;5.28;4.75;;;2.60;91.20;;;;;;5013100;28;20030;-74
2021/12/03 16:58:38;;;;;;;11.30;7.85;;;2.60;91.30;;;;;;5012574;28;20391;-76
2021/12/03 17:17:07;;;;;;;7.60;6.88;;;2.80;90.70;;;;;;5011576;28;20049;-78
2021/12/03 17:47:22;;;;;;;43.20;35.00;;;3.00;90.10;;;;;;5011745;28;20030;-76
2021/12/03 17:59:55;;;;;;;11.70;7.72;;;3.10;89.60;;;;;;4997322;28;20046;-76
2021/12/03 18:15:37;;;;;;;15.65;11.73;;;3.10;90.20;;;;;;5016915;28;20038;-75
2021/12/03 18:53:41;;;;;;;22.65;15.48;;;3.20;88.40;;;;;;4995002;28;20476;-76
2021/12/03 18:56:43;;;;;;;9.52;8.52;;;3.20;88.60;;;;;;4994989;28;20031;-78
2021/12/03 18:59:37;;;;;;;14.32;12.20;;;3.30;88.70;;;;;;4994728;28;20352;-77
2021/12/03 19:02:30;;;;;;;10.20;8.98;;;3.20;88.80;;;;;;4994597;28;20035;-77
2021/12/03 19:05:35;;;;;;;7.78;5.22;;;3.30;88.70;;;;;;4994005;28;20039;-78
2021/12/03 19:08:34;;;;;;;6.88;6.15;;;3.30;88.70;;;;;;4994048;28;20034;-77
2021/12/03 19:14:25;;;;;;;19.42;14.50;;;3.30;88.50;;;;;;4993823;28;20054;-81
2021/12/03 19:17:19;;;;;;;28.75;22.48;;;3.30;88.70;;;;;;4993744;28;20030;-78
2021/12/03 19:20:22;;;;;;;18.10;10.52;;;3.30;88.40;;;;;;5006335;28;20034;-76
2021/12/03 19:23:14;;;;;;;22.63;12.02;;;3.20;88.70;;;;;;4994905;28;20514;-78
2021/12/03 19:26:12;;;;;;;27.92;20.98;;;3.20;88.70;;;;;;5013894;28;20045;-80
2021/12/03 19:29:05;;;;;;;8.02;6.07;;;3.20;88.30;;;;;;5014000;28;20041;-85
2021/12/03 19:32:01;;;;;;;7.35;5.40;;;3.20;88.70;;;;;;5013878;28;20037;-76
2021/12/03 19:34:53;;;;;;;15.27;8.45;;;3.20;88.80;;;;;;4995849;28;20069;-80
2021/12/03 19:37:49;;;;;;;10.82;8.18;;;3.30;88.50;;;;;;4995939;28;20041;-76
2021/12/03 19:40:49;;;;;;;12.93;9.98;;;3.30;88.60;;;;;;5013946;28;20343;-77
2021/12/03 19:43:46;;;;;;;14.65;11.32;;;3.30;88.50;;;;;;5014256;28;20101;-77
2021/12/03 19:46:45;;;;;;;7.95;5.85;;;3.30;88.10;;;;;;4997809;28;20038;-75
2021/12/03 19:52:58;;;;;;;9.73;7.88;;;3.20;88.30;;;;;;5013208;28;20029;-76
2021/12/03 19:55:52;;;;;;;10.98;7.55;;;3.30;88.50;;;;;;5012842;28;20041;-75
2021/12/03 19:58:49;;;;;;;8.55;7.63;;;3.30;88.00;;;;;;5008846;28;20042;-75
2021/12/03 20:01:48;;;;;;;20.50;17.08;;;3.30;88.10;;;;;;5014346;28;20038;-76
2021/12/03 20:04:41;;;;;;;8.63;7.70;;;3.30;87.50;;;;;;5011483;28;20061;-75
2021/12/03 20:07:34;;;;;;;14.63;12.00;;;3.30;87.40;;;;;;5011037;28;20438;-76
2021/12/03 20:10:40;;;;;;;8.60;5.28;;;3.30;87.30;;;;;;5012079;28;20030;-76
2021/12/03 20:13:41;;;;;;;12.23;8.70;;;3.30;87.40;;;;;;5010617;28;20050;-76
2021/12/03 20:16:40;;;;;;;5.68;5.10;;;3.30;87.60;;;;;;5012888;28;20466;-76
2021/12/03 20:22:18;;;;;;;5.35;4.88;;;3.40;85.90;;;;;;5011705;28;20041;-77
2021/12/03 20:27:17;;;;;;;13.82;6.80;;;3.50;84.50;;;;;;5013537;28;20374;-76
2021/12/03 20:32:25;;;;;;;5.53;4.63;;;3.50;84.10;;;;;;5014269;28;20053;-78
2021/12/03 20:37:36;;;;;;;10.38;6.80;;;3.50;84.30;;;;;;5012977;28;20486;-76
2021/12/03 20:40:09;;;;;;;3.53;3.20;;;3.40;84.40;;;;;;5012643;28;20042;-76
2021/12/03 20:48:05;;;;;;;6.75;3.90;;;3.50;83.80;;;;;;5013577;28;20041;-77
2021/12/03 21:09:13;;;;;;;5.30;4.68;;;3.50;83.80;;;;;;4996652;28;20506;-75
2021/12/03 21:11:58;;;;;;;5.28;4.78;;;3.50;83.90;;;;;;4991191;28;20042;-75
2021/12/03 21:23:57;;;;;;;5.15;3.42;;;3.50;83.50;;;;;;4992375;28;20035;-78
2021/12/03 21:27:00;;;;;;;4.82;3.60;;;3.50;83.30;;;;;;4990299;28;20046;-76
2021/12/03 21:39:20;;;;;;;4.20;3.53;;;3.40;83.80;;;;;;4995166;28;19917;-78
2021/12/03 21:42:13;;;;;;;4.97;2.75;;;3.40;83.60;;;;;;4993031;28;20092;-77
2021/12/03 21:45:01;;;;;;;8.27;3.40;;;3.40;83.10;;;;;;4994881;28;20114;-76
2021/12/03 21:47:56;;;;;;;4.88;3.45;;;3.40;83.20;;;;;;4993425;28;20050;-75